createdAt,value
2018-05-18T00:01:42.810Z,5.20
2018-05-18T00:03:46.272Z,4.97
2018-05-18T00:05:48.968Z,4.53
2018-05-18T00:07:52.457Z,5.33
2018-05-18T00:09:55.158Z,4.37
2018-05-18T00:11:58.599Z,4.60
2018-05-18T00:14:02.225Z,4.80
2018-05-18T00:16:04.950Z,4.83
2018-05-18T00:18:07.674Z,5.57
2018-05-18T00:20:10.412Z,5.23
2018-05-18T00:22:13.096Z,4.57
2018-05-18T00:24:15.799Z,5.10
2018-05-18T00:26:18.520Z,4.07
2018-05-18T00:28:21.211Z,5.43
2018-05-18T00:30:23.939Z,4.63
2018-05-18T00:32:26.806Z,5.20
2018-05-18T00:34:29.501Z,4.30
2018-05-18T00:36:32.181Z,4.77
2018-05-18T00:38:34.850Z,4.47
2018-05-18T00:40:37.554Z,4.80
2018-05-18T00:42:41.002Z,4.47
2018-05-18T00:44:43.754Z,5.57
2018-05-18T00:46:46.457Z,4.53
2018-05-18T00:48:49.130Z,5.83
2018-05-18T00:50:51.832Z,5.00
2018-05-18T00:52:54.500Z,4.73
2018-05-18T00:54:57.189Z,4.63
2018-05-18T00:56:59.851Z,5.30
2018-05-18T00:59:02.575Z,5.40
2018-05-18T01:01:05.738Z,4.50
2018-05-18T01:03:09.188Z,4.70
2018-05-18T01:05:11.922Z,4.77
2018-05-18T01:07:14.670Z,5.73
2018-05-18T01:09:17.513Z,4.70
2018-05-18T01:11:20.251Z,6.13
2018-05-18T01:13:23.735Z,5.17
2018-05-18T01:15:27.211Z,5.07
2018-05-18T01:17:29.882Z,5.27
2018-05-18T01:19:32.601Z,5.00
2018-05-18T01:21:35.335Z,5.00
2018-05-18T01:23:38.006Z,4.10
2018-05-18T01:25:40.681Z,5.13
2018-05-18T01:27:43.382Z,5.03
2018-05-18T01:29:46.050Z,4.50
2018-05-18T01:31:48.795Z,4.73
2018-05-18T01:33:51.487Z,5.23
2018-05-18T01:35:54.225Z,4.90
2018-05-18T01:37:56.919Z,4.00
2018-05-18T01:39:59.599Z,4.87
2018-05-18T01:42:02.325Z,5.37
2018-05-18T01:44:05.774Z,4.90
2018-05-18T01:46:08.456Z,5.57
2018-05-18T01:48:11.173Z,5.20
2018-05-18T01:50:14.629Z,5.07
2018-05-18T01:52:17.310Z,5.20
2018-05-18T01:54:20.058Z,4.27
2018-05-18T01:56:22.820Z,4.63
2018-05-18T01:58:25.521Z,4.63
2018-05-18T02:00:28.178Z,5.03
2018-05-18T02:02:30.877Z,5.03
2018-05-18T02:04:33.601Z,5.07
2018-05-18T02:06:37.041Z,5.50
2018-05-18T02:08:39.744Z,4.30
2018-05-18T02:10:42.401Z,4.53
2018-05-18T02:12:45.113Z,4.70
2018-05-18T02:14:47.807Z,4.10
2018-05-18T02:16:51.268Z,5.60
2018-05-18T02:18:53.972Z,5.07
2018-05-18T02:20:56.634Z,5.37
2018-05-18T02:22:59.338Z,5.00
2018-05-18T02:25:02.814Z,5.10
2018-05-18T02:27:05.572Z,5.23
2018-05-18T02:29:08.257Z,4.27
2018-05-18T02:31:12.032Z,5.20
2018-05-18T02:33:14.728Z,4.40
2018-05-18T02:35:17.444Z,4.53
2018-05-18T02:37:20.149Z,5.80
2018-05-18T02:39:22.881Z,5.40
2018-05-18T02:41:25.728Z,6.10
2018-05-18T02:43:28.459Z,4.30
2018-05-18T02:45:31.983Z,4.77
2018-05-18T02:47:34.687Z,5.47
2018-05-18T02:49:37.414Z,5.10
2018-05-18T02:51:40.102Z,4.50
2018-05-18T02:53:42.786Z,5.00
2018-05-18T02:55:45.470Z,5.00
2018-05-18T02:57:48.148Z,6.00
2018-05-18T02:59:50.868Z,5.70
2018-05-18T03:01:54.383Z,6.40
2018-05-18T03:03:58.145Z,5.17
2018-05-18T03:06:01.380Z,5.70
2018-05-18T03:08:04.537Z,6.07
2018-05-18T03:10:07.420Z,5.37
2018-05-18T03:12:10.080Z,4.63
2018-05-18T03:14:12.769Z,5.83
2018-05-18T03:16:15.479Z,5.93
2018-05-18T03:18:19.138Z,6.47
2018-05-18T03:20:22.055Z,4.80
2018-05-18T03:22:25.513Z,5.53
2018-05-18T03:24:28.374Z,5.67
2018-05-18T03:26:31.102Z,5.30
2018-05-18T03:28:34.566Z,4.50
2018-05-18T03:30:37.441Z,5.63
2018-05-18T03:32:40.122Z,5.13
2018-05-18T03:34:42.920Z,5.83
2018-05-18T03:36:45.611Z,5.20
2018-05-18T03:38:50.918Z,5.40
2018-05-18T03:40:54.433Z,6.07
2018-05-18T03:42:57.122Z,5.97
2018-05-18T03:45:00.588Z,5.67
2018-05-18T03:47:03.306Z,5.87
2018-05-18T03:49:06.828Z,5.20
2018-05-18T03:51:09.514Z,5.70
2018-05-18T03:53:12.232Z,5.87
2018-05-18T03:55:14.916Z,5.17
2018-05-18T03:57:17.606Z,5.53
2018-05-18T03:59:21.098Z,5.60
2018-05-18T04:01:36.692Z,5.27
2018-05-18T04:03:51.351Z,5.53
2018-05-18T04:06:06.980Z,5.37
2018-05-18T04:08:21.815Z,6.07
2018-05-18T04:10:24.569Z,4.23
2018-05-18T04:12:28.057Z,6.17
2018-05-18T04:14:31.514Z,4.30
2018-05-18T04:16:34.985Z,5.80
2018-05-18T04:18:37.699Z,4.90
2018-05-18T04:20:40.416Z,4.70
2018-05-18T04:22:43.098Z,5.17
2018-05-18T04:24:45.830Z,5.13
2018-05-18T04:26:48.539Z,4.43
2018-05-18T04:28:51.301Z,5.10
2018-05-18T04:30:54.872Z,4.93
2018-05-18T04:32:58.441Z,4.77
2018-05-18T04:35:01.144Z,4.77
2018-05-18T04:37:09.153Z,4.80
2018-05-18T04:39:12.147Z,5.40
2018-05-18T04:41:14.821Z,4.40
2018-05-18T04:43:17.570Z,4.00
2018-05-18T04:45:20.275Z,5.20
2018-05-18T04:47:23.055Z,4.90
2018-05-18T04:49:25.820Z,4.33
2018-05-18T04:51:28.503Z,5.20
2018-05-18T04:53:31.224Z,5.90
2018-05-18T04:55:34.988Z,4.77
2018-05-18T04:57:37.671Z,5.33
2018-05-18T04:59:41.129Z,4.37
2018-05-18T05:01:43.929Z,4.37
2018-05-18T05:03:46.632Z,4.60
2018-05-18T05:05:50.352Z,4.27
2018-05-18T05:07:53.207Z,4.83
2018-05-18T05:09:55.896Z,4.87
2018-05-18T05:11:59.500Z,4.33
2018-05-18T05:14:02.279Z,4.57
2018-05-18T05:16:04.986Z,4.93
2018-05-18T05:18:07.689Z,5.93
2018-05-18T05:20:10.392Z,5.10
2018-05-18T05:22:13.972Z,4.23
2018-05-18T05:24:16.729Z,4.70
2018-05-18T05:26:19.409Z,5.20
2018-05-18T05:28:22.085Z,4.67
2018-05-18T05:30:25.535Z,5.80
2018-05-18T05:32:28.276Z,5.57
2018-05-18T05:34:30.961Z,4.57
2018-05-18T05:36:33.753Z,4.87
2018-05-18T05:38:37.295Z,4.80
2018-05-18T05:40:40.084Z,5.30
2018-05-18T05:42:42.801Z,5.10
2018-05-18T05:44:46.272Z,4.43
2018-05-18T05:46:49.107Z,5.03
2018-05-18T05:48:51.816Z,5.40
2018-05-18T05:50:54.504Z,5.23
2018-05-18T05:52:57.229Z,4.70
2018-05-18T05:55:00.585Z,5.47
2018-05-18T05:57:03.287Z,5.20
2018-05-18T05:59:06.740Z,5.03
2018-05-18T06:01:09.480Z,5.37
2018-05-18T06:03:13.014Z,4.93
2018-05-18T06:05:15.754Z,4.90
2018-05-18T06:07:18.476Z,5.03
2018-05-18T06:09:21.187Z,5.57
2018-05-18T06:11:23.920Z,6.10
2018-05-18T06:13:26.677Z,5.80
2018-05-18T06:15:29.754Z,4.97
2018-05-18T06:17:32.521Z,5.23
2018-05-18T06:19:35.231Z,5.10
2018-05-18T06:21:38.012Z,6.30
2018-05-18T06:23:40.691Z,5.80
2018-05-18T06:25:43.453Z,4.50
2018-05-18T06:27:46.329Z,6.33
2018-05-18T06:29:49.020Z,5.80
2018-05-18T06:31:51.960Z,5.60
2018-05-18T06:33:54.711Z,5.37
2018-05-18T06:35:57.441Z,6.03
2018-05-18T06:38:00.113Z,5.20
2018-05-18T06:40:02.804Z,5.23
2018-05-18T06:42:05.557Z,5.07
2018-05-18T06:44:08.240Z,6.33
2018-05-18T06:46:10.934Z,5.30
2018-05-18T06:48:14.443Z,5.30
2018-05-18T06:50:17.341Z,5.10
2018-05-18T06:52:20.040Z,4.73
2018-05-18T06:54:23.515Z,5.40
2018-05-18T06:56:26.249Z,5.53
2018-05-18T06:58:28.931Z,5.37
2018-05-18T07:00:31.636Z,5.20
2018-05-18T07:02:34.321Z,5.67
2018-05-18T07:04:38.845Z,4.80
2018-05-18T07:06:42.295Z,5.70
2018-05-18T07:08:45.206Z,5.07
2018-05-18T07:10:47.924Z,5.90
2018-05-18T07:12:50.685Z,6.17
2018-05-18T07:14:54.170Z,5.47
2018-05-18T07:16:56.838Z,5.17
2018-05-18T07:18:59.532Z,5.23
2018-05-18T07:21:02.992Z,5.57
2018-05-18T07:23:05.760Z,6.03
2018-05-18T07:25:09.178Z,5.13
2018-05-18T07:27:11.918Z,6.50
2018-05-18T07:29:14.599Z,5.33
2018-05-18T07:31:17.306Z,5.40
2018-05-18T07:33:19.999Z,5.70
2018-05-18T07:35:23.286Z,5.80
2018-05-18T07:37:27.882Z,5.37
2018-05-18T07:39:33.481Z,6.00
2018-05-18T07:41:38.083Z,5.30
2018-05-18T07:43:42.596Z,5.90
2018-05-18T07:45:46.888Z,5.63
2018-05-18T07:47:50.876Z,5.30
2018-05-18T07:49:54.872Z,5.80
2018-05-18T07:51:59.384Z,5.40
2018-05-18T07:54:03.703Z,5.63
2018-05-18T07:56:07.816Z,4.87
2018-05-18T07:58:12.886Z,5.50
2018-05-18T08:00:18.408Z,5.90
2018-05-18T08:02:24.819Z,4.87
2018-05-18T08:04:28.351Z,5.37
2018-05-18T08:06:32.775Z,5.80
2018-05-18T08:08:39.773Z,5.57
2018-05-18T08:10:46.232Z,5.60
2018-05-18T08:12:51.082Z,4.47
2018-05-18T08:14:53.896Z,4.67
2018-05-18T08:16:57.531Z,5.77
2018-05-18T08:19:00.201Z,5.60
2018-05-18T08:21:02.917Z,5.37
2018-05-18T08:23:05.604Z,5.67
2018-05-18T08:25:10.978Z,5.40
2018-05-18T08:27:24.070Z,5.30
2018-05-18T08:29:35.557Z,5.60
2018-05-18T08:31:39.394Z,5.57
2018-05-18T08:33:42.165Z,5.20
2018-05-18T08:35:44.850Z,5.80
2018-05-18T08:37:47.555Z,6.63
2018-05-18T08:39:50.222Z,6.27
2018-05-18T08:41:52.916Z,5.23
2018-05-18T08:43:55.625Z,5.53
2018-05-18T08:45:59.248Z,5.40
2018-05-18T08:48:01.964Z,5.80
2018-05-18T08:50:04.790Z,5.40
2018-05-18T08:52:08.577Z,5.87
2018-05-18T08:54:11.304Z,6.40
2018-05-18T08:56:15.209Z,6.00
2018-05-18T08:58:17.903Z,5.50
2018-05-18T09:00:20.588Z,5.20
2018-05-18T09:02:23.292Z,5.47
2018-05-18T09:04:25.982Z,5.73
2018-05-18T09:06:29.434Z,5.27
2018-05-18T09:08:32.117Z,5.10
2018-05-18T09:10:36.763Z,5.00
2018-05-18T09:12:43.641Z,5.03
2018-05-18T09:14:46.389Z,5.87
2018-05-18T09:16:49.092Z,6.03
2018-05-18T09:18:52.561Z,5.90
2018-05-18T09:20:55.267Z,5.97
2018-05-18T09:22:57.921Z,6.60
2018-05-18T09:25:00.676Z,5.20
2018-05-18T09:27:03.438Z,6.77
2018-05-18T09:29:06.283Z,5.53
2018-05-18T09:31:09.043Z,5.83
2018-05-18T09:33:12.007Z,5.40
2018-05-18T09:35:15.446Z,6.03
2018-05-18T09:37:18.960Z,5.40
2018-05-18T09:39:21.661Z,4.83
2018-05-18T09:41:24.421Z,5.47
2018-05-18T09:43:27.101Z,5.97
2018-05-18T09:45:29.790Z,6.33
2018-05-18T09:47:32.529Z,5.90
2018-05-18T09:49:35.972Z,5.60
2018-05-18T09:51:38.650Z,5.90
2018-05-18T09:53:41.354Z,6.40
2018-05-18T09:55:44.063Z,6.00
2018-05-18T09:57:46.771Z,5.53
2018-05-18T09:59:49.483Z,5.93
2018-05-18T10:01:52.160Z,5.90
2018-05-18T10:03:54.896Z,5.67
2018-05-18T10:05:57.574Z,6.17
2018-05-18T10:08:00.310Z,6.10
2018-05-18T10:10:03.912Z,6.43
2018-05-18T10:12:07.363Z,5.97
2018-05-18T10:14:10.175Z,5.67
2018-05-18T10:16:13.610Z,6.03
2018-05-18T10:18:16.349Z,5.83
2018-05-18T10:20:19.880Z,5.23
2018-05-18T10:22:22.589Z,7.00
2018-05-18T10:24:25.279Z,6.00
2018-05-18T10:26:27.969Z,5.90
2018-05-18T10:28:31.562Z,5.90
2018-05-18T10:30:34.305Z,5.63
2018-05-18T10:32:37.009Z,6.17
2018-05-18T10:34:39.753Z,5.73
2018-05-18T10:36:42.461Z,6.87
2018-05-18T10:38:45.206Z,5.40
2018-05-18T10:40:48.033Z,6.20
2018-05-18T10:42:51.514Z,6.10
2018-05-18T10:44:54.278Z,5.97
2018-05-18T10:46:57.008Z,6.27
2018-05-18T10:48:59.737Z,6.83
2018-05-18T10:51:02.513Z,7.47
2018-05-18T10:53:05.280Z,5.60
2018-05-18T10:55:07.966Z,5.90
2018-05-18T10:57:10.805Z,5.67
2018-05-18T10:59:13.525Z,5.90
2018-05-18T11:01:17.557Z,7.00
2018-05-18T11:03:21.048Z,6.20
2018-05-18T11:05:23.794Z,6.90
2018-05-18T11:07:28.066Z,6.20
2018-05-18T11:09:30.773Z,5.93
2018-05-18T11:11:35.486Z,6.77
2018-05-18T11:13:39.201Z,6.67
2018-05-18T11:15:42.747Z,5.90
2018-05-18T11:17:49.809Z,6.17
2018-05-18T11:19:55.069Z,6.87
2018-05-18T11:21:59.729Z,6.93
2018-05-18T11:24:03.737Z,6.20
2018-05-18T11:26:13.255Z,6.20
2018-05-18T11:28:20.279Z,6.60
2018-05-18T11:30:24.233Z,5.97
2018-05-18T11:32:29.429Z,6.43
2018-05-18T11:34:32.969Z,7.40
2018-05-18T11:36:36.114Z,6.27
2018-05-18T11:38:38.785Z,7.03
2018-05-18T11:40:43.595Z,6.53
2018-05-18T11:42:46.434Z,6.70
2018-05-18T11:44:49.341Z,7.00
2018-05-18T11:46:52.800Z,6.50
2018-05-18T11:48:57.391Z,6.63
2018-05-18T11:51:00.145Z,6.77
2018-05-18T11:53:03.012Z,6.60
2018-05-18T11:55:05.754Z,6.63
2018-05-18T11:57:09.242Z,5.77
2018-05-18T11:59:11.949Z,7.00
2018-05-18T12:01:16.817Z,5.00
2018-05-18T12:03:22.689Z,5.70
2018-05-18T12:05:27.984Z,6.73
2018-05-18T12:07:34.485Z,6.57
2018-05-18T12:09:40.654Z,6.37
2018-05-18T12:11:45.303Z,5.83
2018-05-18T12:13:48.061Z,6.30
2018-05-18T12:15:50.780Z,6.50
2018-05-18T12:17:53.476Z,5.67
2018-05-18T12:19:56.179Z,6.40
2018-05-18T12:21:58.904Z,5.60
2018-05-18T12:24:01.582Z,6.70
2018-05-18T12:26:04.339Z,6.87
2018-05-18T12:28:07.828Z,6.37
2018-05-18T12:30:12.404Z,6.17
2018-05-18T12:32:15.930Z,6.50
2018-05-18T12:34:18.652Z,7.07
2018-05-18T12:36:21.450Z,6.53
2018-05-18T12:38:24.204Z,6.47
2018-05-18T12:40:26.878Z,7.53
2018-05-18T12:42:29.584Z,8.17
2018-05-18T12:44:32.317Z,6.27
2018-05-18T12:46:35.002Z,6.90
2018-05-18T12:48:37.816Z,7.07
2018-05-18T12:50:40.542Z,6.10
2018-05-18T12:52:44.032Z,6.97
2018-05-18T12:54:46.897Z,6.97
2018-05-18T12:56:49.586Z,6.20
2018-05-18T12:58:52.276Z,6.70
2018-05-18T13:00:55.752Z,6.53
2018-05-18T13:02:58.440Z,5.80
2018-05-18T13:05:01.907Z,6.27
2018-05-18T13:07:04.620Z,6.33
2018-05-18T13:09:08.098Z,6.97
2018-05-18T13:11:10.802Z,6.03
2018-05-18T13:13:13.492Z,6.30
2018-05-18T13:15:16.273Z,6.30
2018-05-18T13:17:18.950Z,7.30
2018-05-18T13:19:21.662Z,7.37
2018-05-18T13:21:24.463Z,6.83
2018-05-18T13:23:27.169Z,7.03
2018-05-18T13:25:29.900Z,6.17
2018-05-18T13:27:32.595Z,7.30
2018-05-18T13:29:35.309Z,6.83
2018-05-18T13:31:37.980Z,6.00
2018-05-18T13:33:40.685Z,6.60
2018-05-18T13:35:43.374Z,7.00
2018-05-18T13:37:46.054Z,6.27
2018-05-18T13:39:48.782Z,5.77
2018-05-18T13:41:51.461Z,6.70
2018-05-18T13:43:54.179Z,6.70
2018-05-18T13:45:56.846Z,7.37
2018-05-18T13:47:59.521Z,7.43
2018-05-18T13:50:02.277Z,7.67
2018-05-18T13:52:04.976Z,7.10
2018-05-18T13:54:07.698Z,6.80
2018-05-18T13:56:11.166Z,6.80
2018-05-18T13:58:13.899Z,7.03
2018-05-18T14:00:16.598Z,6.57
2018-05-18T14:02:19.282Z,7.03
2018-05-18T14:04:22.013Z,6.60
2018-05-18T14:06:25.454Z,7.57
2018-05-18T14:08:28.212Z,7.43
2018-05-18T14:10:30.916Z,6.70
2018-05-18T14:12:33.656Z,6.83
2018-05-18T14:14:36.348Z,6.20
2018-05-18T14:16:39.037Z,7.30
2018-05-18T14:18:41.770Z,6.80
2018-05-18T14:20:45.249Z,7.00
2018-05-18T14:22:47.956Z,7.50
2018-05-18T14:24:50.665Z,6.67
2018-05-18T14:26:53.360Z,7.13
2018-05-18T14:28:56.836Z,6.20
2018-05-18T14:30:59.524Z,7.67
2018-05-18T14:33:02.231Z,6.80
2018-05-18T14:35:05.693Z,7.20
2018-05-18T14:37:08.427Z,6.83
2018-05-18T14:39:11.124Z,6.53
2018-05-18T14:41:13.800Z,7.20
2018-05-18T14:43:16.520Z,7.07
2018-05-18T14:45:19.205Z,7.00
2018-05-18T14:47:21.935Z,7.47
2018-05-18T14:49:24.639Z,6.90
2018-05-18T14:51:27.352Z,7.57
2018-05-18T14:53:30.805Z,5.87
2018-05-18T14:55:33.494Z,7.37
2018-05-18T14:57:36.212Z,6.90
2018-05-18T14:59:38.896Z,6.60
2018-05-18T15:01:41.671Z,6.90
2018-05-18T15:03:44.374Z,7.20
2018-05-18T15:05:47.081Z,6.90
2018-05-18T15:07:49.805Z,7.93
2018-05-18T15:09:52.524Z,8.10
2018-05-18T15:11:55.223Z,6.63
2018-05-18T15:13:57.914Z,6.17
2018-05-18T15:16:01.405Z,6.50
2018-05-18T15:18:04.885Z,6.87
2018-05-18T15:20:07.590Z,7.10
2018-05-18T15:22:11.087Z,7.40
2018-05-18T15:24:13.788Z,7.50
2018-05-18T15:26:16.494Z,6.20
2018-05-18T15:28:19.181Z,7.03
2018-05-18T15:30:21.898Z,7.47
2018-05-18T15:32:24.572Z,5.80
2018-05-18T15:34:27.264Z,6.47
2018-05-18T15:36:29.978Z,6.07
2018-05-18T15:38:32.660Z,6.10
2018-05-18T15:40:35.353Z,6.43
2018-05-18T15:42:38.116Z,6.30
2018-05-18T15:44:40.780Z,5.83
2018-05-18T15:46:43.502Z,5.90
2018-05-18T15:48:46.964Z,6.10
2018-05-18T15:50:49.670Z,6.63
2018-05-18T15:52:53.153Z,7.50
2018-05-18T15:54:56.685Z,6.97
2018-05-18T15:56:59.403Z,6.77
2018-05-18T15:59:02.075Z,6.80
2018-05-18T16:01:04.788Z,6.73
2018-05-18T16:03:08.266Z,5.50
2018-05-18T16:05:11.002Z,6.40
2018-05-18T16:07:13.703Z,6.87
2018-05-18T16:09:16.416Z,6.60
2018-05-18T16:11:19.876Z,5.87
2018-05-18T16:13:22.546Z,6.67
2018-05-18T16:15:25.257Z,7.23
2018-05-18T16:17:28.723Z,6.00
2018-05-18T16:19:31.446Z,6.20
2018-05-18T16:21:34.904Z,6.07
2018-05-18T16:23:37.608Z,6.53
2018-05-18T16:25:41.104Z,6.10
2018-05-18T16:27:44.539Z,6.50
2018-05-18T16:29:47.268Z,6.23
2018-05-18T16:31:50.017Z,6.27
2018-05-18T16:33:52.748Z,6.60
2018-05-18T16:35:55.450Z,6.70
2018-05-18T16:37:58.122Z,6.20
2018-05-18T16:40:00.856Z,6.00
2018-05-18T16:42:03.531Z,6.43
2018-05-18T16:44:06.236Z,5.83
2018-05-18T16:46:08.938Z,7.10
2018-05-18T16:48:11.676Z,6.17
2018-05-18T16:50:15.134Z,6.47
2018-05-18T16:52:17.851Z,7.30
2018-05-18T16:54:20.559Z,6.53
2018-05-18T16:56:23.261Z,5.70
2018-05-18T16:58:26.027Z,6.57
2018-05-18T17:00:28.796Z,5.47
2018-05-18T17:02:31.489Z,6.23
2018-05-18T17:04:34.196Z,5.83
2018-05-18T17:06:36.946Z,6.67
2018-05-18T17:08:39.608Z,6.87
2018-05-18T17:10:42.305Z,6.67
2018-05-18T17:12:44.990Z,6.80
2018-05-18T17:14:47.727Z,6.60
2018-05-18T17:16:50.418Z,6.73
2018-05-18T17:18:53.100Z,6.00
2018-05-18T17:20:55.817Z,5.87
2018-05-18T17:22:59.307Z,6.13
2018-05-18T17:25:02.781Z,5.70
2018-05-18T17:27:05.474Z,5.70
2018-05-18T17:29:08.183Z,6.37
2018-05-18T17:31:10.896Z,5.60
2018-05-18T17:33:13.580Z,6.13
2018-05-18T17:35:16.289Z,6.30
2018-05-18T17:37:19.730Z,6.07
2018-05-18T17:39:22.428Z,5.90
2018-05-18T17:41:25.178Z,7.07
2018-05-18T17:43:27.853Z,6.40
2018-05-18T17:45:30.585Z,6.33
2018-05-18T17:47:34.048Z,6.10
2018-05-18T17:49:36.722Z,6.00
2018-05-18T17:51:39.444Z,5.87
2018-05-18T17:53:42.918Z,6.20
2018-05-18T17:55:45.616Z,7.00
2018-05-18T17:57:49.070Z,6.60
2018-05-18T17:59:52.568Z,6.50
2018-05-18T18:01:55.295Z,5.63
2018-05-18T18:03:57.990Z,6.87
2018-05-18T18:06:00.655Z,6.13
2018-05-18T18:08:03.418Z,5.53
2018-05-18T18:10:06.891Z,6.40
2018-05-18T18:12:09.604Z,5.50
2018-05-18T18:14:12.387Z,9.70
2018-05-18T18:16:15.028Z,6.07
2018-05-18T18:18:17.735Z,8.73
2018-05-18T18:20:21.587Z,6.20
2018-05-18T18:22:24.322Z,7.57
2018-05-18T18:24:27.019Z,6.03
2018-05-18T18:26:29.789Z,5.87
2018-05-18T18:28:32.545Z,5.70
2018-05-18T18:30:35.244Z,5.37
2018-05-18T18:32:37.978Z,5.57
2018-05-18T18:34:41.438Z,5.33
2018-05-18T18:36:44.115Z,6.23
2018-05-18T18:38:46.865Z,5.30
2018-05-18T18:40:49.549Z,5.80
2018-05-18T18:42:52.239Z,6.20
2018-05-18T18:44:54.954Z,6.00
2018-05-18T18:46:58.453Z,4.97
2018-05-18T18:49:01.968Z,5.73
2018-05-18T18:51:04.661Z,5.43
2018-05-18T18:53:07.345Z,5.20
2018-05-18T18:55:10.074Z,5.50
2018-05-18T18:57:12.757Z,5.43
2018-05-18T18:59:16.270Z,6.33
2018-05-18T19:01:19.005Z,4.97
2018-05-18T19:03:21.698Z,5.83
2018-05-18T19:05:24.417Z,6.40
2018-05-18T19:07:27.081Z,7.63
2018-05-18T19:09:29.775Z,8.57
2018-05-18T19:11:32.460Z,5.90
2018-05-18T19:13:35.130Z,6.63
2018-05-18T19:15:37.849Z,5.00
2018-05-18T19:17:40.557Z,5.10
2018-05-18T19:19:43.271Z,5.23
2018-05-18T19:21:45.982Z,5.30
2018-05-18T19:23:48.682Z,5.63
2018-05-18T19:25:52.246Z,5.23
2018-05-18T19:27:54.945Z,5.33
2018-05-18T19:29:58.453Z,5.33
2018-05-18T19:32:01.950Z,6.00
2018-05-18T19:34:04.661Z,5.33
2018-05-18T19:36:07.409Z,5.80
2018-05-18T19:38:10.845Z,5.30
2018-05-18T19:40:13.535Z,5.20
2018-05-18T19:42:16.248Z,4.73
2018-05-18T19:44:19.700Z,5.10
2018-05-18T19:46:22.463Z,4.70
2018-05-18T19:48:25.153Z,5.47
2018-05-18T19:50:27.862Z,5.60
2018-05-18T19:52:31.361Z,4.70
2018-05-18T19:54:34.836Z,5.07
2018-05-18T19:56:37.574Z,5.07
2018-05-18T19:58:40.287Z,5.57
2018-05-18T20:00:42.975Z,5.23
2018-05-18T20:02:45.711Z,5.17
2018-05-18T20:04:48.413Z,4.97
2018-05-18T20:06:51.106Z,4.90
2018-05-18T20:08:53.814Z,5.40
2018-05-18T20:10:56.501Z,5.37
2018-05-18T20:12:59.203Z,5.60
2018-05-18T20:15:01.916Z,5.07
2018-05-18T20:17:04.707Z,5.67
2018-05-18T20:19:08.193Z,5.30
2018-05-18T20:21:10.900Z,5.30
2018-05-18T20:23:13.646Z,5.50
2018-05-18T20:25:16.344Z,5.37
2018-05-18T20:27:19.839Z,5.90
2018-05-18T20:29:23.297Z,6.20
2018-05-18T20:31:25.992Z,4.83
2018-05-18T20:33:29.496Z,5.37
2018-05-18T20:35:32.937Z,6.23
2018-05-18T20:37:35.679Z,5.63
2018-05-18T20:39:38.376Z,5.70
2018-05-18T20:41:41.111Z,5.90
2018-05-18T20:43:43.810Z,6.10
2018-05-18T20:45:47.278Z,5.87
2018-05-18T20:47:49.990Z,5.60
2018-05-18T20:49:52.689Z,6.80
2018-05-18T20:51:55.414Z,6.37
2018-05-18T20:53:58.088Z,6.47
2018-05-18T20:56:00.784Z,5.60
2018-05-18T20:58:04.250Z,6.20
2018-05-18T21:00:06.968Z,5.70
2018-05-18T21:02:09.700Z,5.90
2018-05-18T21:04:12.392Z,5.13
2018-05-18T21:06:15.075Z,4.90
2018-05-18T21:08:17.761Z,6.03
2018-05-18T21:10:21.220Z,5.23
2018-05-18T21:12:23.915Z,5.60
2018-05-18T21:14:26.599Z,5.70
2018-05-18T21:16:30.156Z,5.80
2018-05-18T21:18:32.836Z,5.70
2018-05-18T21:20:35.539Z,6.23
2018-05-18T21:22:39.037Z,5.97
2018-05-18T21:24:41.719Z,5.80
2018-05-18T21:26:44.428Z,5.87
2018-05-18T21:28:47.142Z,6.43
2018-05-18T21:30:49.856Z,5.60
2018-05-18T21:32:53.314Z,5.60
2018-05-18T21:34:56.017Z,6.33
2018-05-18T21:36:58.747Z,5.63
2018-05-18T21:39:01.454Z,5.30
2018-05-18T21:41:04.656Z,6.60
2018-05-18T21:43:07.332Z,6.30
2018-05-18T21:45:10.041Z,5.77
2018-05-18T21:47:12.726Z,5.90
2018-05-18T21:49:15.446Z,6.50
2018-05-18T21:51:18.210Z,5.90
2018-05-18T21:53:20.894Z,5.83
2018-05-18T21:55:23.604Z,6.00
2018-05-18T21:57:27.061Z,5.90
2018-05-18T21:59:29.759Z,5.93
2018-05-18T22:01:32.444Z,6.20
2018-05-18T22:03:35.156Z,5.83
2018-05-18T22:05:37.876Z,6.00
2018-05-18T22:07:40.559Z,5.87
2018-05-18T22:09:43.265Z,5.70
2018-05-18T22:11:46.697Z,5.43
2018-05-18T22:13:49.382Z,5.87
2018-05-18T22:15:52.084Z,5.00
2018-05-18T22:17:54.775Z,4.83
2018-05-18T22:19:57.492Z,5.33
2018-05-18T22:22:00.173Z,6.70
2018-05-18T22:24:02.887Z,5.77
2018-05-18T22:26:05.590Z,5.77
2018-05-18T22:28:09.076Z,5.00
2018-05-18T22:30:11.802Z,6.77
2018-05-18T22:32:14.489Z,5.60
2018-05-18T22:34:17.185Z,4.20
2018-05-18T22:36:19.923Z,5.20
2018-05-18T22:38:22.626Z,5.30
2018-05-18T22:40:25.362Z,5.00
2018-05-18T22:42:28.839Z,5.30
2018-05-18T22:44:31.528Z,5.40
2018-05-18T22:46:35.018Z,4.93
2018-05-18T22:48:38.499Z,5.00
2018-05-18T22:50:41.210Z,4.90
2018-05-18T22:52:43.890Z,5.43
2018-05-18T22:54:46.607Z,5.00
2018-05-18T22:56:49.335Z,5.20
2018-05-18T22:58:52.800Z,5.70
2018-05-18T23:00:55.548Z,5.90
2018-05-18T23:02:58.289Z,5.57
2018-05-18T23:05:00.963Z,5.83
2018-05-18T23:07:03.711Z,6.33
2018-05-18T23:09:06.421Z,4.93
2018-05-18T23:11:09.099Z,5.40
2018-05-18T23:13:11.808Z,5.97
2018-05-18T23:15:14.515Z,5.97
2018-05-18T23:17:17.225Z,5.80
2018-05-18T23:19:19.914Z,5.77
2018-05-18T23:21:22.600Z,6.50
2018-05-18T23:23:25.326Z,5.87
2018-05-18T23:25:28.854Z,6.47
2018-05-18T23:27:31.549Z,5.83
2018-05-18T23:29:34.319Z,6.57
2018-05-18T23:31:36.989Z,6.27
2018-05-18T23:33:39.699Z,6.13
2018-05-18T23:35:42.374Z,5.93
2018-05-18T23:37:45.092Z,6.77
2018-05-18T23:39:48.567Z,6.60
2018-05-18T23:41:51.306Z,6.90
2018-05-18T23:43:54.024Z,7.33
2018-05-18T23:45:56.718Z,6.27
2018-05-18T23:47:59.406Z,7.00
2018-05-18T23:50:02.907Z,7.07
2018-05-18T23:52:06.353Z,7.50
2018-05-18T23:54:09.040Z,7.43
2018-05-18T23:56:11.709Z,6.60
2018-05-18T23:58:14.389Z,8.70
